Time;durP1;ratioP1;P1;durP2;ratioP2;P2;SDS_P1;SDS_P2;PMS_P1;PMS_P2;Temp;Humidity;BMP_temperature;BMP_pressure;BME280_temperature;BME280_humidity;BME280_pressure;Samples;Min_cycle;Max_cycle;Signal;HPM_P1;HPM_P2
2021/04/07 00:01:58;;;;;;;18.85;2.40;;;;;;;-0.45;95.25;100734.84;4988546;28;20062;-81
2021/04/07 00:04:24;;;;;;;24.10;2.63;;;;;;;-0.55;95.48;100737.03;4987603;28;20206;-77
2021/04/07 00:06:54;;;;;;;12.63;2.00;;;;;;;-0.70;96.09;100732.63;4974479;28;20050;-78
2021/04/07 00:09:20;;;;;;;22.38;2.40;;;;;;;-0.52;95.62;100728.34;4972525;28;20105;-80
2021/04/07 00:11:45;;;;;;;20.25;2.58;;;;;;;-0.54;95.37;100730.16;4970728;28;20145;-79
2021/04/07 00:14:11;;;;;;;23.30;2.95;;;;;;;-0.55;95.00;100728.47;4989785;28;20042;-78
2021/04/07 00:16:37;;;;;;;20.10;2.17;;;;;;;-0.70;95.13;100732.63;4972788;28;20106;-76
2021/04/07 00:19:07;;;;;;;23.75;2.25;;;;;;;-0.80;95.19;100730.50;4962926;28;20038;-76
2021/04/07 00:21:33;;;;;;;17.92;2.53;;;;;;;-0.77;95.52;100734.69;4956378;28;20278;-77
2021/04/07 00:23:59;;;;;;;14.70;2.40;;;;;;;-0.64;94.42;100737.47;4967954;28;20046;-78
2021/04/07 00:26:25;;;;;;;17.60;2.22;;;;;;;-0.59;93.92;100732.94;4970397;28;20058;-75
2021/04/07 00:28:51;;;;;;;19.17;2.20;;;;;;;-0.73;94.45;100735.38;4974942;28;20070;-78
2021/04/07 00:31:16;;;;;;;16.35;2.65;;;;;;;-0.87;94.36;100736.84;4996641;28;20053;-78
2021/04/07 00:33:42;;;;;;;16.42;2.17;;;;;;;-0.94;94.98;100732.91;4980048;28;20058;-77
2021/04/07 00:36:07;;;;;;;15.55;2.03;;;;;;;-0.96;94.88;100734.72;5006842;28;20081;-80
2021/04/07 00:38:34;;;;;;;18.65;2.15;;;;;;;-0.92;94.76;100733.66;4967298;28;20050;-75
2021/04/07 00:41:00;;;;;;;22.83;2.40;;;;;;;-0.99;95.32;100740.84;4991328;28;20061;-80
2021/04/07 00:43:25;;;;;;;20.65;3.70;;;;;;;-0.85;94.84;100739.34;4998310;28;20103;-75
2021/04/07 00:45:51;;;;;;;17.80;2.80;;;;;;;-0.80;94.61;100745.13;4964745;28;20046;-77
2021/04/07 00:48:17;;;;;;;15.35;2.47;;;;;;;-0.96;94.95;100750.19;4978480;28;20046;-76
2021/04/07 00:50:43;;;;;;;19.75;2.20;;;;;;;-1.00;94.87;100751.19;4978625;28;20111;-77
2021/04/07 00:53:09;;;;;;;17.48;2.70;;;;;;;-1.09;95.22;100742.19;4970014;28;20066;-78
2021/04/07 00:55:38;;;;;;;25.42;2.60;;;;;;;-0.86;94.89;100743.66;5002730;28;20499;-76
2021/04/07 00:58:05;;;;;;;27.23;2.70;;;;;;;-0.76;94.15;100738.91;4980113;28;20133;-78
2021/04/07 01:00:32;;;;;;;21.05;2.20;;;;;;;-0.75;93.94;100750.03;4978463;28;20043;-79
2021/04/07 01:02:59;;;;;;;17.67;2.42;;;;;;;-0.59;92.91;100746.66;4990637;28;20049;-77
2021/04/07 01:05:26;;;;;;;11.65;1.95;;;;;;;-0.59;93.25;100745.81;4975052;28;20061;-76
2021/04/07 01:07:51;;;;;;;19.75;2.45;;;;;;;-0.67;93.90;100748.78;4955725;28;20042;-79
2021/04/07 01:10:17;;;;;;;21.25;2.47;;;;;;;-0.53;93.26;100744.69;4976515;28;20046;-80
2021/04/07 01:12:44;;;;;;;18.90;2.22;;;;;;;-0.51;92.90;100740.28;4976848;28;20039;-78
2021/04/07 01:15:12;;;;;;;17.30;2.50;;;;;;;-0.58;93.05;100739.78;4975864;28;20054;-80
2021/04/07 01:17:38;;;;;;;17.38;2.30;;;;;;;-0.60;92.94;100744.16;4973902;28;20057;-76
2021/04/07 01:20:06;;;;;;;20.08;2.22;;;;;;;-0.67;93.46;100742.78;4976691;28;20038;-79
2021/04/07 01:22:33;;;;;;;20.48;3.15;;;;;;;-0.63;93.25;100747.72;4979592;28;20342;-80
2021/04/07 01:25:00;;;;;;;17.13;2.13;;;;;;;-0.79;93.99;100747.63;4976943;28;20074;-74
2021/04/07 01:27:27;;;;;;;21.70;2.60;;;;;;;-0.77;94.19;100751.84;4978836;28;20141;-74
2021/04/07 01:29:52;;;;;;;14.60;3.10;;;;;;;-0.78;93.82;100745.88;4976192;28;21725;-76
2021/04/07 01:32:18;;;;;;;18.73;2.90;;;;;;;-0.81;93.81;100741.72;4973921;28;20038;-80
2021/04/07 01:34:45;;;;;;;16.40;2.80;;;;;;;-0.79;93.80;100752.78;4977555;28;20043;-74
2021/04/07 01:37:12;;;;;;;24.55;3.35;;;;;;;-0.91;94.14;100761.06;4976096;28;20432;-76
2021/04/07 01:39:38;;;;;;;21.58;2.65;;;;;;;-0.75;94.34;100757.75;4994018;28;20042;-76
2021/04/07 01:42:03;;;;;;;18.98;2.88;;;;;;;-0.67;94.09;100751.34;4983116;28;20057;-79
2021/04/07 01:44:31;;;;;;;15.63;2.20;;;;;;;-0.54;93.60;100755.91;4976801;28;20113;-79
2021/04/07 01:46:57;;;;;;;21.85;2.33;;;;;;;-0.45;93.27;100746.00;4980116;28;21368;-78
2021/04/07 01:49:23;;;;;;;24.58;3.05;;;;;;;-0.50;93.42;100753.09;4993279;28;20141;-79
2021/04/07 01:51:49;;;;;;;13.90;2.40;;;;;;;-0.62;93.64;100754.53;4961767;28;20050;-78
2021/04/07 01:54:15;;;;;;;17.73;2.50;;;;;;;-0.65;93.37;100754.69;4976305;28;20057;-74
2021/04/07 01:56:57;;;;;;;21.88;3.20;;;;;;;-0.63;92.68;100764.91;4961699;28;20436;-75
2021/04/07 01:59:30;;;;;;;23.55;3.22;;;;;;;-0.56;92.75;100763.72;4973478;28;20058;-81
2021/04/07 02:01:58;;;;;;;24.15;2.95;;;;;;;-0.55;91.75;100760.22;5000369;28;20081;-78
2021/04/07 02:04:24;;;;;;;13.25;2.05;;;;;;;-0.57;92.14;100766.38;4953705;28;20121;-80
2021/04/07 02:06:50;;;;;;;17.80;2.60;;;;;;;-0.54;92.00;100761.06;4976149;28;20050;-76
2021/04/07 02:09:17;;;;;;;20.63;2.60;;;;;;;-0.63;92.43;100760.59;4961132;28;20074;-78
2021/04/07 02:11:44;;;;;;;19.65;2.80;;;;;;;-0.71;92.94;100757.56;4977024;28;20112;-79
2021/04/07 02:14:15;;;;;;;15.05;2.53;;;;;;;-0.71;92.65;100757.56;4977291;28;20055;-79
2021/04/07 02:16:52;;;;;;;19.92;2.95;;;;;;;-0.86;93.28;100764.28;4960288;28;20081;-76
2021/04/07 02:19:17;;;;;;;15.85;2.80;;;;;;;-0.99;93.66;100771.75;4960335;28;20418;-80
2021/04/07 02:21:43;;;;;;;12.60;2.40;;;;;;;-0.93;93.60;100770.63;4976229;28;20137;-79
2021/04/07 02:24:09;;;;;;;18.05;2.53;;;;;;;-0.79;93.36;100773.38;4993487;28;20136;-81
2021/04/07 02:26:34;;;;;;;20.17;2.40;;;;;;;-0.74;93.48;100762.84;4970960;28;20479;-79
2021/04/07 02:29:00;;;;;;;14.80;2.08;;;;;;;-0.73;93.07;100774.84;4966660;28;20057;-74
2021/04/07 02:31:26;;;;;;;19.42;3.55;;;;;;;-0.72;93.28;100768.75;4976367;28;20327;-78
2021/04/07 02:33:51;;;;;;;15.95;2.38;;;;;;;-0.90;93.47;100775.63;4991342;28;20042;-77
2021/04/07 02:36:17;;;;;;;14.23;2.13;;;;;;;-0.98;93.99;100768.28;4960335;28;20065;-77
2021/04/07 02:38:42;;;;;;;18.30;2.65;;;;;;;-0.84;93.70;100783.06;4972190;28;20069;-77
2021/04/07 02:41:08;;;;;;;15.27;2.05;;;;;;;-0.75;93.02;100775.78;4972325;28;20073;-79
2021/04/07 02:43:34;;;;;;;17.45;2.28;;;;;;;-0.68;92.54;100774.59;4956134;28;20130;-78
2021/04/07 02:45:59;;;;;;;19.60;2.75;;;;;;;-0.61;92.50;100779.38;4985494;28;20046;-78
2021/04/07 02:48:26;;;;;;;11.75;2.20;;;;;;;-0.58;92.71;100768.13;4989194;28;20054;-78
2021/04/07 02:50:52;;;;;;;15.25;2.30;;;;;;;-0.61;92.11;100763.94;4959754;28;20057;-73
2021/04/07 02:53:18;;;;;;;22.40;2.92;;;;;;;-0.63;92.01;100754.63;4973276;28;20046;-79
2021/04/07 02:55:44;;;;;;;13.68;2.00;;;;;;;-0.69;92.88;100768.63;4975222;28;20125;-79
2021/04/07 02:58:10;;;;;;;13.45;2.47;;;;;;;-0.70;93.10;100772.09;4974218;28;20073;-76
2021/04/07 03:00:35;;;;;;;16.95;2.53;;;;;;;-0.70;93.00;100766.13;4955864;28;20139;-79
2021/04/07 03:03:01;;;;;;;22.77;2.38;;;;;;;-0.75;93.05;100776.66;4984291;28;20050;-80
2021/04/07 03:05:27;;;;;;;14.05;2.05;;;;;;;-0.73;92.35;100772.25;4983787;28;20102;-78
2021/04/07 03:07:52;;;;;;;23.45;2.90;;;;;;;-0.67;92.04;100766.81;4980795;28;20052;-74
2021/04/07 03:10:18;;;;;;;18.00;2.85;;;;;;;-0.74;92.26;100778.31;4974978;28;20050;-80
2021/04/07 03:12:44;;;;;;;13.48;1.67;;;;;;;-0.66;91.89;100776.22;4970552;28;20044;-79
2021/04/07 03:15:10;;;;;;;14.75;2.22;;;;;;;-0.83;91.91;100779.59;4991724;28;20077;-76
2021/04/07 03:17:39;;;;;;;17.38;2.65;;;;;;;-0.94;92.60;100775.84;4992935;28;20042;-80
2021/04/07 03:20:06;;;;;;;16.98;2.00;;;;;;;-1.00;92.92;100779.53;4957958;28;20567;-74
2021/04/07 03:22:33;;;;;;;17.27;2.67;;;;;;;-1.08;92.91;100785.03;4974696;28;20073;-79
2021/04/07 03:24:58;;;;;;;16.05;2.35;;;;;;;-1.04;92.83;100780.59;4992729;28;20101;-77
2021/04/07 03:27:24;;;;;;;20.55;2.92;;;;;;;-1.09;93.19;100785.09;4970684;28;20054;-78
2021/04/07 03:29:51;;;;;;;23.67;2.40;;;;;;;-1.00;92.66;100782.09;4983813;28;20053;-77
2021/04/07 03:32:17;;;;;;;17.73;2.25;;;;;;;-0.99;92.21;100782.03;4955434;28;20047;-79
2021/04/07 03:34:42;;;;;;;11.80;2.55;;;;;;;-1.01;91.82;100794.16;4971701;28;20138;-77
2021/04/07 03:37:08;;;;;;;20.30;2.72;;;;;;;-0.96;91.79;100787.94;4953771;28;20061;-74
2021/04/07 03:39:34;;;;;;;17.60;2.42;;;;;;;-0.99;92.10;100788.94;4970704;28;20035;-78
2021/04/07 03:41:59;;;;;;;13.02;1.70;;;;;;;-1.06;92.19;100783.22;4958111;28;20050;-77
2021/04/07 03:44:25;;;;;;;14.60;1.90;;;;;;;-1.11;91.65;100784.34;4983051;28;20051;-78
2021/04/07 03:46:54;;;;;;;14.95;2.53;;;;;;;-1.21;92.38;100784.75;4973681;28;20066;-75
2021/04/07 03:49:20;;;;;;;17.08;2.55;;;;;;;-1.09;91.82;100792.81;4974980;28;20038;-77
2021/04/07 03:51:45;;;;;;;13.18;2.63;;;;;;;-1.25;92.75;100782.41;4973825;28;20042;-78
2021/04/07 03:54:11;;;;;;;18.42;2.50;;;;;;;-1.10;92.12;100786.84;4972225;28;20069;-79
2021/04/07 03:56:37;;;;;;;20.38;2.75;;;;;;;-1.16;92.21;100784.56;4990275;28;20107;-76
2021/04/07 03:59:03;;;;;;;17.85;3.55;;;;;;;-1.21;92.37;100796.81;4991301;28;20048;-79
2021/04/07 04:01:28;;;;;;;15.20;2.35;;;;;;;-1.29;92.84;100804.88;4977888;28;20148;-75
2021/04/07 04:03:54;;;;;;;18.60;3.03;;;;;;;-1.39;93.36;100804.44;4967795;28;20057;-78
2021/04/07 04:06:19;;;;;;;15.50;2.65;;;;;;;-1.32;92.93;100804.16;4962126;28;20096;-77
2021/04/07 04:08:45;;;;;;;13.68;3.05;;;;;;;-1.25;92.65;100805.56;4961024;28;20058;-81
2021/04/07 04:11:11;;;;;;;16.92;3.17;;;;;;;-1.15;91.85;100796.50;4994195;28;20042;-81
2021/04/07 04:13:36;;;;;;;20.63;3.22;;;;;;;-1.19;91.63;100806.13;4974050;28;20050;-76
2021/04/07 04:16:02;;;;;;;20.42;3.60;;;;;;;-1.18;91.69;100806.97;4959262;28;20039;-74
2021/04/07 04:18:27;;;;;;;15.73;3.45;;;;;;;-1.26;91.80;100806.47;4962140;28;20078;-77
2021/04/07 04:20:53;;;;;;;15.38;3.30;;;;;;;-1.21;92.01;100814.81;4961530;28;20081;-78
2021/04/07 04:23:19;;;;;;;21.75;4.28;;;;;;;-1.14;91.86;100816.22;4983707;28;20065;-76
2021/04/07 04:25:44;;;;;;;22.23;4.00;;;;;;;-1.19;91.52;100816.44;4988032;28;20104;-78
2021/04/07 04:28:10;;;;;;;25.85;4.97;;;;;;;-1.29;91.96;100815.16;4977645;28;20053;-75
2021/04/07 04:30:36;;;;;;;18.15;4.20;;;;;;;-1.34;92.48;100814.53;4976621;28;20526;-76
2021/04/07 04:33:01;;;;;;;21.55;4.25;;;;;;;-1.26;91.86;100809.88;4984151;28;20039;-77
2021/04/07 04:35:27;;;;;;;23.25;5.07;;;;;;;-1.23;92.12;100814.88;4989422;28;20050;-74
2021/04/07 04:37:53;;;;;;;20.30;4.43;;;;;;;-1.22;91.88;100814.00;4983951;28;20060;-79
2021/04/07 04:40:19;;;;;;;17.25;3.80;;;;;;;-1.25;92.09;100821.00;4976909;28;20658;-80
2021/04/07 04:42:46;;;;;;;20.70;4.82;;;;;;;-1.28;92.18;100824.56;5001693;28;20045;-78
2021/04/07 04:45:12;;;;;;;25.95;4.32;;;;;;;-1.23;92.18;100832.06;4989313;28;20848;-78
2021/04/07 04:47:38;;;;;;;15.85;4.03;;;;;;;-1.26;92.44;100834.78;4974065;28;20035;-75
2021/04/07 04:50:06;;;;;;;16.25;4.78;;;;;;;-1.29;92.48;100828.03;4992090;28;20415;-75
2021/04/07 04:52:31;;;;;;;17.67;5.05;;;;;;;-1.23;92.10;100832.06;4992771;28;20042;-75
2021/04/07 04:54:57;;;;;;;24.35;5.30;;;;;;;-1.22;92.43;100844.88;4976954;28;20065;-79
2021/04/07 04:57:23;;;;;;;23.95;4.78;;;;;;;-1.23;92.42;100826.94;4975677;28;20677;-77
2021/04/07 04:59:48;;;;;;;26.75;4.75;;;;;;;-1.15;92.56;100842.03;4992523;28;20181;-74
2021/04/07 05:02:14;;;;;;;19.77;4.45;;;;;;;-1.15;92.63;100845.41;4980729;28;20078;-78
2021/04/07 05:04:40;;;;;;;20.20;3.85;;;;;;;-1.03;91.84;100838.91;4958575;28;20054;-76
2021/04/07 05:07:05;;;;;;;19.00;4.30;;;;;;;-1.03;91.59;100841.47;4948458;28;20109;-78
2021/04/07 05:09:31;;;;;;;25.90;3.70;;;;;;;-1.10;92.08;100848.63;4955958;28;20069;-77
2021/04/07 05:11:57;;;;;;;21.17;4.28;;;;;;;-1.08;92.00;100846.81;4974971;28;20771;-78
2021/04/07 05:14:22;;;;;;;18.98;3.28;;;;;;;-1.14;92.23;100833.41;4947186;28;20146;-78
2021/04/07 05:16:48;;;;;;;13.57;2.92;;;;;;;-1.05;92.55;100854.41;4993423;28;20048;-78
2021/04/07 05:19:14;;;;;;;19.05;3.45;;;;;;;-0.93;91.80;100852.19;4959527;28;20038;-77
2021/04/07 05:21:40;;;;;;;15.60;3.63;;;;;;;-1.00;91.65;100847.34;4999561;28;20050;-76
2021/04/07 05:24:06;;;;;;;11.02;2.90;;;;;;;-0.96;92.04;100850.59;5011220;28;20057;-76
2021/04/07 05:26:34;;;;;;;15.38;3.40;;;;;;;-0.99;91.61;100846.41;4976022;28;20105;-76
2021/04/07 05:28:59;;;;;;;17.80;3.25;;;;;;;-0.95;91.79;100854.00;4976406;28;20042;-79
2021/04/07 05:31:25;;;;;;;14.90;2.67;;;;;;;-0.96;91.55;100848.03;4975077;28;20397;-78
2021/04/07 05:33:51;;;;;;;19.15;4.03;;;;;;;-0.87;91.37;100868.19;4974169;28;20496;-77
2021/04/07 05:36:16;;;;;;;17.38;3.05;;;;;;;-0.85;91.46;100863.81;4974842;28;20045;-75
2021/04/07 05:38:43;;;;;;;15.68;3.42;;;;;;;-0.81;91.46;100867.94;4975164;28;20150;-77
2021/04/07 05:41:09;;;;;;;7.35;2.72;;;;;;;-0.84;91.21;100860.31;4973633;28;20039;-80
2021/04/07 05:43:36;;;;;;;13.68;3.13;;;;;;;-0.79;91.55;100866.09;4983090;28;20053;-78
2021/04/07 05:46:03;;;;;;;16.17;2.78;;;;;;;-0.79;91.36;100868.69;4983814;28;20121;-79
2021/04/07 05:48:29;;;;;;;19.15;3.20;;;;;;;-0.73;91.43;100874.47;4960200;28;20043;-77
2021/04/07 05:50:56;;;;;;;16.33;2.75;;;;;;;-0.71;91.67;100878.63;4967891;28;20049;-77
2021/04/07 05:53:22;;;;;;;20.98;3.53;;;;;;;-0.65;91.26;100874.94;4978254;28;20042;-76
2021/04/07 05:55:51;;;;;;;18.70;3.53;;;;;;;-0.73;91.95;100880.44;4961288;28;20104;-78
2021/04/07 05:58:17;;;;;;;18.35;2.58;;;;;;;-0.59;91.13;100879.78;5012232;28;20042;-80
2021/04/07 06:00:43;;;;;;;15.57;2.70;;;;;;;-0.43;90.88;100885.09;4993970;28;20056;-79
2021/04/07 06:03:10;;;;;;;12.80;2.88;;;;;;;-0.41;90.85;100880.69;4977523;28;20053;-79
2021/04/07 06:05:37;;;;;;;13.43;3.15;;;;;;;-0.38;90.70;100883.09;4959885;28;20054;-78
2021/04/07 06:08:03;;;;;;;8.95;2.65;;;;;;;-0.37;90.66;100877.06;4995327;28;20046;-76
2021/04/07 06:10:30;;;;;;;14.82;3.00;;;;;;;-0.32;90.11;100890.56;5006659;28;20077;-77
2021/04/07 06:12:57;;;;;;;13.70;3.17;;;;;;;-0.27;90.34;100883.44;4975905;28;20034;-80
2021/04/07 06:15:23;;;;;;;15.50;2.97;;;;;;;-0.22;90.27;100889.22;4959638;28;20054;-81
2021/04/07 06:18:07;;;;;;;13.50;3.10;;;;;;;-0.15;89.56;100896.63;4961311;28;20081;-76
2021/04/07 06:20:38;;;;;;;10.73;3.20;;;;;;;-0.06;88.77;100898.78;4993873;28;20128;-79
2021/04/07 06:23:05;;;;;;;14.80;2.85;;;;;;;-0.01;89.28;100902.81;4993654;28;20046;-76
2021/04/07 06:25:32;;;;;;;10.85;3.28;;;;;;;0.04;88.67;100891.41;4983781;28;20598;-77
2021/04/07 06:28:00;;;;;;;13.48;3.00;;;;;;;0.06;88.53;100892.19;4987165;28;20561;-76
2021/04/07 06:30:46;;;;;;;16.60;3.55;;;;;;;0.01;89.33;100904.47;4994655;28;20061;-80
2021/04/07 06:33:23;;;;;;;11.85;3.83;;;;;;;0.09;88.50;100907.50;4978880;28;20053;-75
2021/04/07 06:35:51;;;;;;;13.77;3.45;;;;;;;0.16;88.45;100914.03;4984936;28;20403;-79
2021/04/07 06:38:17;;;;;;;10.07;4.57;;;;;;;0.25;88.22;100913.59;4997318;28;20400;-80
2021/04/07 06:40:43;;;;;;;13.27;4.30;;;;;;;0.11;88.21;100918.59;4990568;28;20046;-79
2021/04/07 06:43:10;;;;;;;16.23;4.22;;;;;;;0.08;88.41;100913.59;4978006;28;20050;-77
2021/04/07 06:45:38;;;;;;;15.45;4.53;;;;;;;0.09;88.44;100918.66;4958855;28;20146;-80
2021/04/07 06:48:08;;;;;;;15.40;3.75;;;;;;;0.18;87.76;100913.06;4957832;28;20476;-77
2021/04/07 06:50:36;;;;;;;15.88;4.00;;;;;;;0.14;88.06;100914.13;4959950;28;20042;-78
2021/04/07 06:53:03;;;;;;;16.63;4.63;;;;;;;0.18;87.94;100904.47;5001861;28;20039;-79
2021/04/07 06:55:29;;;;;;;16.42;4.32;;;;;;;0.25;87.98;100912.78;4992603;28;20046;-79
2021/04/07 06:57:55;;;;;;;16.63;4.85;;;;;;;0.26;87.44;100922.16;4993804;28;20042;-78
2021/04/07 07:00:23;;;;;;;14.38;4.32;;;;;;;0.22;87.98;100918.91;4990712;28;20129;-76
2021/04/07 07:02:58;;;;;;;15.70;4.15;;;;;;;0.30;87.89;100921.94;4992697;28;20046;-80
2021/04/07 07:05:24;;;;;;;17.42;5.47;;;;;;;0.38;87.32;100929.31;4954882;28;20046;-78
2021/04/07 07:07:51;;;;;;;16.83;5.25;;;;;;;0.26;87.77;100917.00;4973796;28;20157;-76
2021/04/07 07:10:16;;;;;;;13.38;4.60;;;;;;;0.28;87.85;100928.06;4991694;28;20949;-78
2021/04/07 07:12:44;;;;;;;18.45;4.82;;;;;;;0.36;88.24;100925.97;4971263;28;20149;-76
2021/04/07 07:15:10;;;;;;;12.98;5.10;;;;;;;0.37;87.70;100925.03;4956559;28;20050;-74
2021/04/07 07:17:37;;;;;;;16.20;5.07;;;;;;;0.30;87.34;100926.25;4984058;28;20050;-77
2021/04/07 07:20:04;;;;;;;16.67;5.07;;;;;;;0.27;87.99;100929.84;4954876;28;20057;-79
2021/04/07 07:22:30;;;;;;;13.57;6.38;;;;;;;0.33;87.21;100933.84;4982974;28;20061;-79
2021/04/07 07:24:58;;;;;;;16.30;5.65;;;;;;;0.26;87.55;100933.31;4991442;28;20146;-78
2021/04/07 07:27:41;;;;;;;11.73;4.80;;;;;;;0.16;88.11;100935.50;4975318;28;20516;-80
2021/04/07 07:30:15;;;;;;;13.43;3.72;;;;;;;0.19;88.28;100929.38;4974348;28;20039;-78
2021/04/07 07:32:43;;;;;;;8.40;3.22;;;;;;;0.23;88.72;100930.91;4993921;28;20932;-77
2021/04/07 07:35:14;;;;;;;12.93;4.80;;;;;;;0.35;89.00;100927.69;4975121;28;20120;-76
2021/04/07 07:37:42;;;;;;;15.68;6.00;;;;;;;0.35;88.76;100937.19;4980204;28;20052;-80
2021/04/07 07:40:21;;;;;;;17.23;5.47;;;;;;;0.37;88.87;100935.38;4976604;28;20049;-78
2021/04/07 07:42:47;;;;;;;13.77;5.45;;;;;;;0.27;89.35;100926.44;4961977;28;20057;-78
2021/04/07 07:45:15;;;;;;;16.30;5.65;;;;;;;0.28;88.92;100938.41;4976273;28;20050;-78
2021/04/07 07:47:44;;;;;;;8.57;4.82;;;;;;;0.37;89.39;100946.50;4983910;28;20062;-77
2021/04/07 07:50:14;;;;;;;10.65;4.38;;;;;;;0.43;88.34;100931.66;4978213;28;20042;-76
2021/04/07 07:52:42;;;;;;;10.20;3.17;;;;;;;0.49;88.44;100946.81;4978432;28;20042;-80
2021/04/07 07:55:15;;;;;;;9.07;2.85;;;;;;;0.50;88.98;100949.31;4991490;28;20042;-77
2021/04/07 07:57:56;;;;;;;;;;;;;;;0.56;88.80;100943.84;4959048;28;20074;-77
2021/04/07 08:00:25;;;;;;;8.18;5.15;;;;;;;0.74;88.59;100949.84;4974976;28;20017;-79
2021/04/07 08:02:53;;;;;;;10.55;3.30;;;;;;;0.69;88.14;100951.00;4984522;28;20074;-81
2021/04/07 08:05:19;;;;;;;10.45;3.35;;;;;;;0.75;88.44;100955.84;4967716;28;20061;-79
2021/04/07 08:07:45;;;;;;;11.60;4.97;;;;;;;0.84;87.56;100952.78;4974792;28;20392;-76
2021/04/07 08:10:13;;;;;;;6.35;3.38;;;;;;;0.80;88.07;100953.03;4992305;28;20046;-78
2021/04/07 08:12:40;;;;;;;9.25;2.70;;;;;;;0.87;88.42;100946.66;4961506;28;20046;-79
2021/04/07 08:15:08;;;;;;;8.50;2.47;;;;;;;0.97;88.49;100945.25;4976846;28;20057;-79
2021/04/07 08:17:49;;;;;;;12.18;2.80;;;;;;;0.96;88.60;100952.16;4962090;28;20047;-80
2021/04/07 08:20:15;;;;;;;7.03;3.70;;;;;;;0.94;87.60;100946.25;4980971;28;20042;-80
2021/04/07 08:22:41;;;;;;;13.63;3.25;;;;;;;0.80;88.30;100959.03;4970939;28;20382;-78
2021/04/07 08:25:07;;;;;;;8.98;2.28;;;;;;;0.83;88.79;100956.28;4957886;28;20054;-78
2021/04/07 08:27:36;;;;;;;9.65;3.08;;;;;;;0.87;89.38;100954.41;4966166;28;20459;-76
2021/04/07 08:30:04;;;;;;;6.40;3.63;;;;;;;0.88;89.07;100962.03;4973338;28;20070;-80
2021/04/07 08:32:30;;;;;;;4.90;2.33;;;;;;;0.95;89.00;100953.06;4976326;28;20050;-79
2021/04/07 08:34:57;;;;;;;5.35;2.63;;;;;;;1.00;89.31;100954.56;4992416;28;20038;-78
2021/04/07 08:37:29;;;;;;;9.27;3.20;;;;;;;1.08;88.15;100952.44;4980028;28;20097;-77
2021/04/07 08:39:55;;;;;;;10.07;3.65;;;;;;;1.02;88.91;100956.19;4990325;28;20061;-79
2021/04/07 08:42:22;;;;;;;11.30;3.50;;;;;;;0.98;89.01;100962.44;4985904;28;20147;-76
2021/04/07 08:44:49;;;;;;;7.82;3.90;;;;;;;1.03;89.86;100954.41;4976145;28;20129;-80
2021/04/07 08:47:31;;;;;;;12.13;4.97;;;;;;;1.01;89.65;100957.06;4974532;28;20051;-78
2021/04/07 08:50:12;;;;;;;12.27;5.35;;;;;;;1.02;88.29;100960.50;4991129;28;20065;-80
2021/04/07 08:52:46;;;;;;;10.95;6.47;;;;;;;1.05;89.21;100965.50;4995543;28;20050;-81
2021/04/07 08:55:22;;;;;;;13.18;7.30;;;;;;;1.07;89.34;100961.91;4995597;28;20050;-79
2021/04/07 08:57:59;;;;;;;15.27;7.95;;;;;;;1.03;89.70;100959.59;4963243;28;20053;-79
2021/04/07 09:00:27;;;;;;;14.18;6.03;;;;;;;0.97;89.18;100973.66;4994530;28;20077;-79
2021/04/07 09:02:57;;;;;;;15.45;6.53;;;;;;;1.06;89.74;100982.69;4969664;28;20034;-79
2021/04/07 09:05:35;;;;;;;12.18;6.57;;;;;;;1.12;89.31;100972.84;4966758;28;20090;-79
2021/04/07 09:08:01;;;;;;;15.32;6.85;;;;;;;1.11;89.50;100970.34;4992824;28;20073;-78
2021/04/07 09:10:39;;;;;;;14.48;6.32;;;;;;;1.07;89.58;100974.00;4994627;28;20057;-79
2021/04/07 09:13:08;;;;;;;13.40;6.82;;;;;;;1.13;89.22;100977.13;4991561;28;20074;-78
2021/04/07 09:15:44;;;;;;;17.40;8.02;;;;;;;1.24;89.46;100975.72;4974442;28;20055;-78
2021/04/07 09:18:10;;;;;;;8.30;5.18;;;;;;;1.21;88.27;100970.72;4975923;28;20050;-79
2021/04/07 09:20:40;;;;;;;10.15;4.80;;;;;;;1.32;89.85;100973.56;4988960;28;20051;-79
2021/04/07 09:23:08;;;;;;;9.15;4.25;;;;;;;1.46;88.66;100981.41;4992435;28;20043;-80
2021/04/07 09:25:34;;;;;;;12.35;4.05;;;;;;;1.61;88.78;100972.00;4978013;28;20050;-78
2021/04/07 09:28:05;;;;;;;6.85;4.10;;;;;;;1.64;88.48;100974.44;4995577;28;20055;-79
2021/04/07 09:30:47;;;;;;;7.05;3.85;;;;;;;1.66;87.57;100977.78;4997817;28;20045;-79
2021/04/07 09:33:15;;;;;;;6.80;2.88;;;;;;;1.63;87.28;100969.34;4996501;28;20129;-80
2021/04/07 09:35:51;;;;;;;9.63;3.45;;;;;;;1.77;87.02;100974.56;4975485;28;20050;-79
2021/04/07 09:38:17;;;;;;;6.72;3.22;;;;;;;1.83;87.87;100974.25;4991688;28;20046;-80
2021/04/07 09:40:42;;;;;;;7.25;3.40;;;;;;;1.90;87.10;100972.16;4976180;28;20115;-76
2021/04/07 09:43:09;;;;;;;6.32;2.75;;;;;;;1.90;87.39;100970.41;4977486;28;20057;-78
2021/04/07 09:45:35;;;;;;;5.18;3.20;;;;;;;1.97;86.83;100970.06;5000037;28;20046;-78
2021/04/07 09:48:02;;;;;;;5.30;3.20;;;;;;;2.00;87.36;100967.28;4981113;28;20046;-78
2021/04/07 09:50:30;;;;;;;6.28;3.45;;;;;;;2.02;86.26;100970.66;4961222;28;20620;-75
2021/04/07 09:53:10;;;;;;;4.85;3.10;;;;;;;2.00;86.15;100962.13;4994164;28;20121;-79
2021/04/07 09:55:35;;;;;;;5.68;2.90;;;;;;;1.93;87.48;100972.00;4971870;28;20563;-78
2021/04/07 09:58:03;;;;;;;3.13;2.45;;;;;;;2.00;86.42;100964.72;4971391;28;20073;-76
2021/04/07 10:00:31;;;;;;;5.03;2.70;;;;;;;2.02;86.77;100965.47;4993188;28;20038;-76
2021/04/07 10:02:57;;;;;;;8.02;3.00;;;;;;;2.01;86.88;100968.97;4977858;28;20042;-75
2021/04/07 10:05:41;;;;;;;3.13;2.88;;;;;;;2.02;87.85;100968.06;4991247;28;20050;-75
2021/04/07 10:08:17;;;;;;;6.43;2.72;;;;;;;2.11;86.28;100972.69;4990350;28;20046;-78
2021/04/07 10:10:42;;;;;;;6.95;2.70;;;;;;;2.05;86.13;100962.69;4991707;28;20085;-77
2021/04/07 10:13:09;;;;;;;5.65;3.03;;;;;;;2.22;87.02;100966.94;4975740;28;20062;-79
2021/04/07 10:15:37;;;;;;;8.30;2.53;;;;;;;2.30;85.86;100963.00;4993282;28;20049;-79
2021/04/07 10:18:11;;;;;;;5.40;2.70;;;;;;;2.42;86.76;100964.03;4959244;28;20065;-79
2021/04/07 10:20:38;;;;;;;5.45;2.22;;;;;;;2.66;86.29;100959.19;4975224;28;20498;-76
2021/04/07 10:23:12;;;;;;;4.28;2.35;;;;;;;3.04;85.06;100955.25;5007768;28;20042;-80
2021/04/07 10:25:38;;;;;;;3.47;2.20;;;;;;;3.31;83.22;100950.97;4979966;28;20475;-78
2021/04/07 10:28:04;;;;;;;3.83;1.90;;;;;;;3.89;81.88;100953.41;4958259;28;20058;-78
2021/04/07 10:30:41;;;;;;;8.60;2.22;;;;;;;3.85;84.13;100951.97;4992482;28;20057;-78
2021/04/07 10:33:07;;;;;;;6.40;2.60;;;;;;;3.93;82.18;100954.88;4975559;28;20053;-77
2021/04/07 10:35:33;;;;;;;3.83;1.98;;;;;;;3.84;82.65;100955.47;4975163;28;20129;-78
2021/04/07 10:38:07;;;;;;;5.35;2.08;;;;;;;3.75;83.41;100943.94;4975667;28;20042;-78
2021/04/07 10:40:34;;;;;;;3.28;2.08;;;;;;;3.77;83.23;100952.44;4956548;28;20053;-80
2021/04/07 10:43:15;;;;;;;4.68;2.33;;;;;;;4.02;81.16;100951.69;4975206;28;20050;-78
2021/04/07 10:45:43;;;;;;;5.50;3.40;;;;;;;4.51;78.56;100946.84;4984012;28;20046;-78
2021/04/07 10:48:09;;;;;;;3.33;2.20;;;;;;;4.63;79.88;100949.44;4975536;28;20149;-78
2021/04/07 10:50:40;;;;;;;2.78;1.80;;;;;;;4.72;78.25;100952.34;4958453;28;20096;-80
2021/04/07 10:53:06;;;;;;;7.95;2.20;;;;;;;4.53;79.70;100944.97;4973683;28;20046;-76
2021/04/07 10:55:34;;;;;;;3.03;2.00;;;;;;;4.47;80.04;100954.81;4957260;28;20066;-80
2021/04/07 10:58:01;;;;;;;5.10;2.20;;;;;;;4.30;80.18;100949.91;4970685;28;20049;-78
2021/04/07 11:00:32;;;;;;;4.25;2.00;;;;;;;4.20;79.20;100957.47;4973070;28;20046;-77
2021/04/07 11:02:59;;;;;;;4.72;2.17;;;;;;;4.12;80.78;100956.31;4974703;28;20416;-77
2021/04/07 11:05:27;;;;;;;4.07;2.15;;;;;;;4.08;81.55;100951.28;4974030;28;20058;-78
2021/04/07 11:08:05;;;;;;;4.47;2.35;;;;;;;4.27;80.88;100943.13;5135625;27;20378;-78
2021/04/07 11:10:48;;;;;;;5.68;2.65;;;;;;;4.26;79.41;100949.28;5088230;27;20060;-79
2021/04/07 11:13:16;;;;;;;2.65;2.03;;;;;;;4.09;79.80;100942.59;5083093;27;20107;-78
2021/04/07 11:15:41;;;;;;;5.43;2.20;;;;;;;4.16;81.92;100943.00;5050025;28;20041;-79
2021/04/07 11:18:14;;;;;;;3.97;2.00;;;;;;;4.32;80.32;100949.81;5066289;27;20059;-78
2021/04/07 11:20:41;;;;;;;5.40;2.30;;;;;;;4.42;79.79;100937.88;5080264;28;20079;-78
2021/04/07 11:23:06;;;;;;;6.85;2.25;;;;;;;4.46;81.50;100942.78;5105752;27;20272;-77
2021/04/07 11:25:32;;;;;;;3.90;2.30;;;;;;;4.68;81.33;100934.34;5103999;27;20557;-76